createdAt,value
2022-08-09T00:00:32.098Z,55.13
2022-08-09T00:02:35.759Z,55.04
2022-08-09T00:04:37.605Z,55.07
2022-08-09T00:06:40.028Z,55.04
2022-08-09T00:08:47.159Z,55.15
2022-08-09T00:10:51.426Z,55.00
2022-08-09T00:12:53.309Z,55.20
2022-08-09T00:14:56.895Z,54.94
2022-08-09T00:16:58.605Z,54.93
2022-08-09T00:19:01.286Z,55.03
2022-08-09T00:21:08.590Z,55.10
2022-08-09T00:23:57.565Z,55.20
2022-08-09T00:25:33.684Z,55.28
2022-08-09T00:27:36.094Z,55.30
2022-08-09T00:30:10.004Z,55.41
2022-08-09T00:32:01.182Z,55.49
2022-08-09T00:34:04.262Z,55.38
2022-08-09T00:36:06.063Z,55.27
2022-08-09T00:38:09.981Z,55.42
2022-08-09T00:40:17.387Z,55.68
2022-08-09T00:44:15.930Z,55.27
2022-08-09T00:44:46.897Z,55.25
2022-08-09T00:46:57.818Z,55.50
2022-08-09T00:49:06.228Z,55.20
2022-08-09T00:51:11.733Z,55.15
2022-08-09T00:53:14.545Z,55.31
2022-08-09T00:56:03.052Z,55.56
2022-08-09T00:57:40.006Z,55.57
2022-08-09T00:59:46.007Z,55.46
2022-08-09T01:01:51.181Z,55.58
2022-08-09T01:03:59.077Z,55.37
2022-08-09T01:06:17.569Z,55.57
2022-08-09T01:08:27.369Z,55.27
2022-08-09T01:10:37.000Z,55.21
2022-08-09T01:12:45.770Z,55.38
2022-08-09T01:14:52.900Z,55.15
2022-08-09T01:17:01.938Z,55.24
2022-08-09T01:19:16.656Z,55.23
2022-08-09T01:21:24.952Z,55.13
2022-08-09T01:24:02.623Z,55.21
2022-08-09T01:26:14.225Z,55.19
2022-08-09T01:28:18.945Z,55.43
2022-08-09T01:30:28.867Z,55.66
2022-08-09T01:32:45.435Z,55.47
2022-08-09T01:34:49.945Z,55.77
2022-08-09T01:36:56.466Z,55.73
2022-08-09T01:39:01.108Z,55.58
2022-08-09T01:41:07.726Z,55.42
2022-08-09T01:43:10.898Z,55.60
2022-08-09T01:45:15.085Z,55.63
2022-08-09T01:47:18.444Z,55.55
2022-08-09T01:49:24.384Z,55.76
2022-08-09T01:51:28.063Z,55.80
2022-08-09T01:53:41.119Z,56.04
2022-08-09T01:55:44.390Z,56.01
2022-08-09T01:57:52.880Z,56.47
2022-08-09T01:59:59.885Z,56.71
2022-08-09T02:02:03.674Z,56.63
2022-08-09T02:04:08.594Z,56.33
2022-08-09T02:06:13.011Z,56.60
2022-08-09T02:08:38.807Z,56.21
2022-08-09T02:10:51.094Z,56.28
2022-08-09T02:12:55.175Z,56.45
2022-08-09T02:15:00.669Z,56.88
2022-08-09T02:17:29.492Z,57.04
2022-08-09T02:19:38.606Z,57.09
2022-08-09T02:21:44.575Z,57.20
2022-08-09T02:23:54.599Z,57.03
2022-08-09T02:25:59.811Z,57.39
2022-08-09T02:28:07.159Z,57.25
2022-08-09T02:30:12.230Z,57.01
2022-08-09T02:32:21.269Z,56.99
2022-08-09T02:34:40.531Z,57.03
2022-08-09T02:36:54.189Z,57.34
2022-08-09T02:38:58.281Z,57.12
2022-08-09T02:41:10.290Z,57.45
2022-08-09T02:43:13.056Z,57.16
2022-08-09T02:45:17.745Z,56.91
2022-08-09T02:47:23.330Z,57.25
2022-08-09T02:49:27.258Z,56.87
2022-08-09T02:51:44.576Z,57.03
2022-08-09T02:53:59.611Z,57.24
2022-08-09T02:56:06.030Z,57.18
2022-08-09T02:58:36.039Z,57.38
2022-08-09T03:00:31.941Z,57.49
2022-08-09T03:02:36.792Z,57.48
2022-08-09T03:04:40.378Z,57.45
2022-08-09T03:06:44.057Z,57.22
2022-08-09T03:08:49.306Z,57.50
2022-08-09T03:10:52.743Z,57.21
2022-08-09T03:12:55.046Z,57.06
2022-08-09T03:14:57.593Z,57.28
2022-08-09T03:17:02.103Z,57.16
2022-08-09T03:19:14.332Z,57.22
2022-08-09T03:21:36.563Z,57.26
2022-08-09T03:23:41.463Z,57.20
2022-08-09T03:26:05.079Z,57.57
2022-08-09T03:28:11.377Z,57.80
2022-08-09T03:30:14.454Z,57.73
2022-08-09T03:32:36.778Z,57.86
2022-08-09T03:34:40.160Z,58.11
2022-08-09T03:36:43.581Z,57.94
2022-08-09T03:39:00.219Z,57.86
2022-08-09T03:41:02.896Z,57.37
2022-08-09T03:43:05.785Z,57.36
2022-08-09T03:45:08.586Z,57.05
2022-08-09T03:47:10.382Z,57.13
2022-08-09T03:49:16.687Z,57.48
2022-08-09T03:51:57.431Z,57.37
2022-08-09T03:53:44.676Z,57.06
2022-08-09T03:55:48.317Z,57.12
2022-08-09T03:57:57.587Z,56.92
2022-08-09T04:00:09.240Z,57.25
2022-08-09T04:02:10.855Z,57.26
2022-08-09T04:04:14.700Z,56.72
2022-08-09T04:06:17.015Z,56.81
2022-08-09T04:08:20.030Z,56.77
2022-08-09T04:10:30.728Z,57.05
2022-08-09T04:12:44.694Z,56.76
2022-08-09T04:14:59.199Z,56.88
2022-08-09T04:17:03.832Z,56.68
2022-08-09T04:19:05.362Z,56.77
2022-08-09T04:21:12.763Z,56.55
2022-08-09T04:23:16.725Z,57.32
2022-08-09T04:25:20.356Z,57.12
2022-08-09T04:27:23.693Z,56.71
2022-08-09T04:29:25.163Z,56.20
2022-08-09T04:31:37.767Z,56.11
2022-08-09T04:33:52.653Z,56.40
2022-08-09T04:35:58.192Z,57.01
2022-08-09T04:38:00.153Z,56.93
2022-08-09T04:40:07.682Z,56.88
2022-08-09T04:42:11.359Z,56.71
2022-08-09T04:44:17.368Z,56.75
2022-08-09T04:46:36.398Z,56.42
2022-08-09T04:48:40.438Z,56.92
2022-08-09T04:50:59.019Z,57.12
2022-08-09T04:53:00.720Z,57.66
2022-08-09T04:55:02.403Z,57.51
2022-08-09T04:57:09.416Z,57.75
2022-08-09T04:59:15.719Z,57.69
2022-08-09T05:01:18.787Z,57.64
2022-08-09T05:03:40.660Z,57.75
2022-08-09T05:05:52.689Z,57.30
2022-08-09T05:08:04.604Z,57.36
2022-08-09T05:10:07.207Z,57.61
2022-08-09T05:12:09.765Z,57.23
2022-08-09T05:14:15.267Z,57.13
2022-08-09T05:16:18.176Z,56.63
2022-08-09T05:18:50.798Z,56.90
2022-08-09T05:20:41.911Z,56.77
2022-08-09T05:23:54.696Z,57.00
2022-08-09T05:25:08.400Z,56.94
2022-08-09T05:27:10.610Z,56.60
2022-08-09T05:29:21.924Z,56.33
2022-08-09T05:31:44.007Z,56.63
2022-08-09T05:33:45.910Z,56.34
2022-08-09T05:35:50.850Z,56.43
2022-08-09T05:37:52.534Z,56.12
2022-08-09T05:39:54.234Z,56.00
2022-08-09T05:41:56.229Z,55.62
2022-08-09T05:44:03.849Z,55.72
2022-08-09T05:46:08.346Z,55.75
2022-08-09T05:48:12.591Z,55.72
2022-08-09T05:50:25.547Z,55.57
2022-08-09T05:52:38.615Z,55.69
2022-08-09T05:54:40.589Z,55.69
2022-08-09T05:56:54.423Z,55.51
2022-08-09T05:58:58.510Z,55.59
2022-08-09T06:01:00.395Z,55.12
2022-08-09T06:03:10.779Z,55.09
2022-08-09T06:05:12.662Z,55.13
2022-08-09T06:07:21.490Z,55.04
2022-08-09T06:09:54.562Z,54.86
2022-08-09T06:11:57.690Z,54.68
2022-08-09T06:13:59.531Z,54.14
2022-08-09T06:16:01.680Z,54.21
2022-08-09T06:18:07.921Z,53.86
2022-08-09T06:20:12.849Z,53.42
2022-08-09T06:22:23.522Z,53.04
2022-08-09T06:24:30.580Z,52.48
2022-08-09T06:26:33.006Z,51.82
2022-08-09T06:28:34.957Z,51.87
2022-08-09T06:30:38.721Z,51.86
2022-08-09T06:32:59.458Z,52.12
2022-08-09T06:35:06.383Z,51.99
2022-08-09T06:37:10.223Z,51.90
2022-08-09T06:39:11.984Z,51.93
2022-08-09T06:41:18.811Z,52.22
2022-08-09T06:43:21.829Z,52.05
2022-08-09T06:46:06.708Z,51.85
2022-08-09T06:47:45.431Z,51.48
2022-08-09T06:50:14.968Z,50.51
2022-08-09T06:52:10.028Z,48.64
2022-08-09T06:54:14.924Z,48.48
2022-08-09T06:56:16.616Z,47.81
2022-08-09T06:58:40.577Z,47.27
2022-08-09T07:00:51.172Z,46.82
2022-08-09T07:02:59.597Z,46.52
2022-08-09T07:05:02.281Z,46.34
2022-08-09T07:07:04.795Z,46.07
2022-08-09T07:09:08.072Z,46.36
2022-08-09T07:11:34.189Z,46.54
2022-08-09T07:14:04.283Z,46.42
2022-08-09T07:16:42.831Z,46.51
2022-08-09T07:18:29.765Z,47.03
2022-08-09T07:20:33.093Z,46.47
2022-08-09T07:22:47.416Z,46.98
2022-08-09T07:24:55.580Z,46.58
2022-08-09T07:26:57.411Z,47.13
2022-08-09T07:29:08.224Z,47.37
2022-08-09T07:31:10.995Z,46.53
2022-08-09T07:33:16.475Z,45.32
2022-08-09T07:35:18.914Z,45.74
2022-08-09T07:37:20.705Z,45.20
2022-08-09T07:39:40.256Z,45.25
2022-08-09T07:41:44.987Z,44.62
2022-08-09T07:43:50.051Z,44.97
2022-08-09T07:46:02.126Z,44.84
2022-08-09T07:48:05.497Z,44.03
2022-08-09T07:50:09.294Z,44.06
2022-08-09T07:52:17.904Z,43.92
2022-08-09T07:54:28.006Z,43.73
2022-08-09T07:56:32.060Z,43.79
2022-08-09T07:58:35.059Z,44.05
2022-08-09T08:00:36.806Z,44.51
2022-08-09T08:02:57.766Z,44.60
2022-08-09T08:04:59.741Z,44.61
2022-08-09T08:07:27.194Z,44.80
2022-08-09T08:09:35.533Z,45.26
2022-08-09T08:12:24.146Z,44.63
2022-08-09T08:14:07.411Z,44.54
2022-08-09T08:16:29.549Z,44.01
2022-08-09T08:18:31.714Z,44.66
2022-08-09T08:20:33.683Z,44.18
2022-08-09T08:22:35.297Z,43.94
2022-08-09T08:24:40.744Z,42.94
2022-08-09T08:26:56.133Z,41.96
2022-08-09T08:28:58.228Z,40.53
2022-08-09T08:31:10.642Z,40.47
2022-08-09T08:33:23.012Z,39.92
2022-08-09T08:35:28.213Z,40.49
2022-08-09T08:37:41.412Z,41.38
2022-08-09T08:40:00.483Z,41.18
2022-08-09T08:42:02.516Z,41.24
2022-08-09T08:44:04.546Z,40.92
2022-08-09T08:46:33.112Z,41.34
2022-08-09T08:48:34.289Z,40.51
2022-08-09T08:50:37.029Z,40.39
2022-08-09T08:52:59.419Z,40.01
2022-08-09T08:55:03.947Z,39.04
2022-08-09T08:57:11.643Z,38.07
2022-08-09T08:59:19.473Z,37.81
2022-08-09T09:01:25.031Z,36.91
2022-08-09T09:03:38.260Z,36.38
2022-08-09T09:06:03.325Z,36.19
2022-08-09T09:08:03.326Z,35.83
2022-08-09T09:10:09.128Z,35.66
2022-08-09T09:12:16.472Z,35.16
2022-08-09T09:14:23.741Z,35.83
2022-08-09T09:16:30.836Z,35.88
2022-08-09T09:18:33.437Z,36.31
2022-08-09T09:20:35.397Z,36.39
2022-08-09T09:22:57.772Z,35.50
2022-08-09T09:26:01.025Z,35.23
2022-08-09T09:28:06.625Z,34.23
2022-08-09T09:32:15.935Z,34.26
2022-08-09T09:34:18.162Z,34.89
2022-08-09T09:36:21.265Z,34.62
2022-08-09T09:38:38.687Z,34.46
2022-08-09T09:40:46.187Z,35.00
2022-08-09T09:42:56.088Z,34.33
2022-08-09T09:44:58.674Z,33.68
2022-08-09T09:47:07.882Z,33.81
2022-08-09T09:49:18.616Z,33.14
2022-08-09T09:51:38.134Z,32.74
2022-08-09T09:53:57.411Z,32.74
2022-08-09T09:56:05.512Z,32.77
2022-08-09T09:58:16.891Z,32.35
2022-08-09T10:00:22.804Z,32.39
2022-08-09T10:02:28.288Z,32.56
2022-08-09T10:04:31.848Z,31.78
2022-08-09T10:06:43.017Z,31.43
2022-08-09T10:08:57.270Z,32.08
2022-08-09T10:10:59.282Z,32.51
2022-08-09T10:13:01.055Z,32.97
2022-08-09T10:15:10.717Z,32.96
2022-08-09T10:17:39.637Z,32.75
2022-08-09T10:19:43.774Z,31.91
2022-08-09T10:21:48.924Z,32.16
2022-08-09T10:23:52.224Z,31.26
2022-08-09T10:26:07.839Z,30.89
2022-08-09T10:28:12.755Z,31.10
2022-08-09T10:32:42.778Z,30.52
2022-08-09T10:34:46.372Z,30.57
2022-08-09T10:36:48.799Z,30.13
2022-08-09T10:38:56.707Z,30.28
2022-08-09T10:41:01.918Z,29.84
2022-08-09T10:43:05.270Z,29.72
2022-08-09T10:45:16.740Z,29.93
2022-08-09T10:48:16.812Z,30.85
2022-08-09T10:50:21.094Z,30.02
2022-08-09T10:52:46.038Z,29.74
2022-08-09T10:54:47.574Z,29.48
2022-08-09T10:57:07.959Z,29.82
2022-08-09T10:59:31.174Z,29.82
2022-08-09T11:03:16.430Z,30.17
2022-08-09T11:04:28.559Z,30.01
2022-08-09T11:06:35.091Z,30.15
2022-08-09T11:08:47.427Z,29.52
2022-08-09T11:10:56.139Z,28.98
2022-08-09T11:13:13.885Z,29.26
2022-08-09T11:15:38.375Z,28.80
2022-08-09T11:18:03.009Z,28.62
2022-08-09T11:20:10.754Z,27.89
2022-08-09T11:22:59.522Z,28.00
2022-08-09T11:25:04.946Z,27.92
2022-08-09T11:28:04.706Z,28.57
2022-08-09T11:30:05.929Z,28.34
2022-08-09T11:32:45.682Z,29.12
2022-08-09T11:34:51.438Z,29.65
2022-08-09T11:36:55.752Z,30.04
2022-08-09T11:39:04.170Z,30.30
2022-08-09T11:41:26.321Z,30.05
2022-08-09T11:43:42.744Z,30.29
2022-08-09T11:45:54.756Z,30.26
2022-08-09T11:48:06.586Z,29.82
2022-08-09T11:50:53.205Z,30.00
2022-08-09T11:53:59.857Z,30.71
2022-08-09T11:56:02.825Z,30.12
2022-08-09T11:58:32.313Z,29.71
2022-08-09T12:00:34.757Z,29.56
2022-08-09T12:02:40.825Z,29.09
2022-08-09T12:04:43.122Z,28.76
2022-08-09T12:06:55.522Z,28.31
2022-08-09T12:08:57.683Z,28.38
2022-08-09T12:11:04.113Z,27.39
2022-08-09T12:14:09.818Z,27.44
2022-08-09T12:15:52.593Z,26.55
2022-08-09T12:17:54.977Z,26.79
2022-08-09T12:19:59.895Z,26.99
2022-08-09T12:22:03.814Z,27.30
2022-08-09T12:24:09.292Z,28.42
2022-08-09T12:26:25.824Z,28.73
2022-08-09T12:29:09.807Z,28.57
2022-08-09T12:30:50.129Z,28.83
2022-08-09T12:33:01.429Z,29.76
2022-08-09T12:35:05.189Z,29.74
2022-08-09T12:37:23.699Z,30.01
2022-08-09T12:39:30.842Z,29.30
2022-08-09T12:41:40.766Z,29.71
2022-08-09T12:44:05.584Z,28.77
2022-08-09T12:46:04.372Z,28.57
2022-08-09T12:48:20.213Z,28.31
2022-08-09T12:50:31.509Z,27.53
2022-08-09T12:52:42.822Z,27.26
2022-08-09T12:56:11.157Z,27.23
2022-08-09T12:57:38.711Z,26.72
2022-08-09T13:00:03.340Z,27.38
2022-08-09T13:02:04.451Z,27.92
2022-08-09T13:04:16.674Z,28.13
2022-08-09T13:06:34.205Z,28.71
2022-08-09T13:08:40.111Z,29.16
2022-08-09T13:10:52.333Z,28.56
2022-08-09T13:13:08.833Z,28.67
2022-08-09T13:15:12.131Z,28.64
2022-08-09T13:17:16.092Z,29.33
2022-08-09T13:19:25.782Z,29.07
2022-08-09T13:23:00.551Z,28.73
2022-08-09T13:24:44.599Z,28.44
2022-08-09T13:26:36.539Z,28.01
2022-08-09T13:28:40.468Z,28.21
2022-08-09T13:30:50.980Z,28.62
2022-08-09T13:33:04.170Z,28.48
2022-08-09T13:35:06.524Z,28.43
2022-08-09T13:37:13.635Z,28.35
2022-08-09T13:41:19.093Z,28.56
2022-08-09T13:41:59.139Z,29.20
2022-08-09T13:44:05.398Z,29.19
2022-08-09T13:46:42.935Z,29.00
2022-08-09T13:48:30.115Z,28.86
2022-08-09T13:50:31.880Z,29.66
2022-08-09T13:52:33.712Z,30.03
2022-08-09T13:54:35.468Z,29.94
2022-08-09T13:56:43.323Z,29.49
2022-08-09T13:58:48.654Z,29.64
2022-08-09T14:00:53.109Z,29.42
2022-08-09T14:03:03.415Z,28.59
2022-08-09T14:05:58.554Z,28.56
2022-08-09T14:07:42.042Z,28.33
2022-08-09T14:09:43.943Z,27.82
2022-08-09T14:11:47.865Z,28.08
2022-08-09T14:14:22.539Z,28.15
2022-08-09T14:16:14.848Z,28.18
2022-08-09T14:18:20.735Z,27.86
2022-08-09T14:20:31.858Z,27.50
2022-08-09T14:22:34.073Z,27.30
2022-08-09T14:24:35.799Z,27.04
2022-08-09T14:26:41.755Z,27.17
2022-08-09T14:28:46.795Z,26.45
2022-08-09T14:30:48.844Z,26.63
2022-08-09T14:32:52.844Z,26.45
2022-08-09T14:34:56.757Z,26.29
2022-08-09T14:36:58.725Z,26.21
2022-08-09T14:39:00.769Z,26.20
2022-08-09T14:41:34.402Z,25.91
2022-08-09T14:43:27.856Z,26.04
2022-08-09T14:46:55.819Z,25.71
2022-08-09T14:48:12.310Z,25.77
2022-08-09T14:50:17.386Z,25.61
2022-08-09T14:52:19.142Z,26.03
2022-08-09T14:54:22.298Z,25.55
2022-08-09T14:56:26.984Z,25.48
2022-08-09T14:58:28.619Z,26.18
2022-08-09T15:00:31.128Z,26.43
2022-08-09T15:02:32.869Z,27.13
2022-08-09T15:04:36.322Z,27.14
2022-08-09T15:06:37.839Z,27.58
2022-08-09T15:08:39.597Z,27.95
2022-08-09T15:10:43.054Z,28.07
2022-08-09T15:13:04.729Z,27.65
2022-08-09T15:15:08.567Z,27.51
2022-08-09T15:17:10.489Z,27.56
2022-08-09T15:19:18.007Z,27.50
2022-08-09T15:21:56.427Z,27.54
2022-08-09T15:24:00.954Z,27.67
2022-08-09T15:26:04.923Z,27.32
2022-08-09T15:28:26.415Z,27.63
2022-08-09T15:30:57.289Z,27.77
2022-08-09T15:32:51.944Z,28.07
2022-08-09T15:34:54.898Z,28.21
2022-08-09T15:36:59.400Z,28.37
2022-08-09T15:39:01.015Z,28.35
2022-08-09T15:41:09.594Z,28.00
2022-08-09T15:43:13.173Z,28.34
2022-08-09T15:45:21.829Z,28.57
2022-08-09T15:47:52.906Z,28.26
2022-08-09T15:50:03.606Z,28.68
2022-08-09T15:52:07.494Z,28.52
2022-08-09T15:54:20.988Z,28.92
2022-08-09T15:56:31.227Z,29.14
2022-08-09T15:58:32.918Z,29.01
2022-08-09T16:00:34.604Z,29.36
2022-08-09T16:02:36.864Z,29.50
2022-08-09T16:04:38.478Z,28.77
2022-08-09T16:06:40.039Z,28.94
2022-08-09T16:08:49.845Z,28.58
2022-08-09T16:10:56.577Z,29.04
2022-08-09T16:12:58.485Z,29.06
2022-08-09T16:15:01.505Z,29.36
2022-08-09T16:17:03.226Z,29.39
2022-08-09T16:19:05.131Z,28.76
2022-08-09T16:21:06.683Z,29.16
2022-08-09T16:23:08.231Z,29.51
2022-08-09T16:25:14.165Z,29.15
2022-08-09T16:27:17.367Z,29.77
2022-08-09T16:29:20.169Z,29.72
2022-08-09T16:32:11.206Z,29.68
2022-08-09T16:33:43.508Z,29.28
2022-08-09T16:35:55.785Z,29.29
2022-08-09T16:38:00.351Z,29.13
2022-08-09T16:40:04.395Z,29.25
2022-08-09T16:42:08.708Z,29.07
2022-08-09T16:44:16.685Z,29.37
2022-08-09T16:46:18.255Z,30.05
2022-08-09T16:48:42.616Z,30.30
2022-08-09T16:50:59.149Z,30.74
2022-08-09T16:53:01.909Z,31.09
2022-08-09T16:55:04.093Z,31.54
2022-08-09T16:57:11.031Z,31.68
2022-08-09T16:59:12.546Z,31.89
2022-08-09T17:01:14.147Z,31.90
2022-08-09T17:03:22.056Z,32.09
2022-08-09T17:05:24.990Z,31.72
2022-08-09T17:08:47.088Z,31.84
2022-08-09T17:10:10.362Z,31.84
2022-08-09T17:12:14.297Z,32.11
2022-08-09T17:14:25.624Z,32.73
2022-08-09T17:16:30.036Z,32.93
2022-08-09T17:18:39.704Z,32.59
2022-08-09T17:20:52.506Z,33.39
2022-08-09T17:22:54.676Z,33.50
2022-08-09T17:25:03.523Z,33.92
2022-08-09T17:27:15.021Z,33.78
2022-08-09T17:29:20.150Z,33.47
2022-08-09T17:31:22.064Z,33.55
2022-08-09T17:33:24.024Z,33.55
2022-08-09T17:35:25.665Z,34.15
2022-08-09T17:37:27.257Z,34.08
2022-08-09T17:39:52.855Z,34.56
2022-08-09T17:41:53.228Z,34.37
2022-08-09T17:44:42.010Z,34.76
2022-08-09T17:46:17.572Z,34.88
2022-08-09T17:48:19.334Z,35.47
2022-08-09T17:50:36.986Z,35.51
2022-08-09T17:52:39.075Z,35.88
2022-08-09T17:54:40.785Z,36.19
2022-08-09T17:56:43.432Z,36.08
2022-08-09T17:58:46.915Z,36.44
2022-08-09T18:00:49.059Z,36.53
2022-08-09T18:02:58.220Z,36.41
2022-08-09T18:05:00.356Z,36.52
2022-08-09T18:07:04.464Z,36.57
2022-08-09T18:09:07.016Z,36.11
2022-08-09T18:11:08.639Z,36.50
2022-08-09T18:13:53.653Z,36.60
2022-08-09T18:16:04.915Z,36.88
2022-08-09T18:18:07.869Z,36.63
2022-08-09T18:20:56.929Z,36.77
2022-08-09T18:22:34.070Z,36.99
2022-08-09T18:24:35.951Z,37.40
2022-08-09T18:26:38.930Z,37.45
2022-08-09T18:30:41.262Z,37.36
2022-08-09T18:31:10.317Z,39.22
2022-08-09T18:33:13.596Z,39.67
2022-08-09T18:35:17.003Z,39.48
2022-08-09T18:37:48.199Z,39.59
2022-08-09T18:39:41.959Z,41.24
2022-08-09T18:41:52.952Z,39.52
2022-08-09T18:43:55.271Z,40.60
2022-08-09T18:46:50.072Z,39.64
2022-08-09T18:48:20.319Z,39.81
2022-08-09T18:50:22.548Z,39.72
2022-08-09T18:52:34.729Z,39.60
2022-08-09T18:54:37.241Z,39.67
2022-08-09T18:56:38.942Z,40.11
2022-08-09T18:58:42.586Z,39.68
2022-08-09T19:00:50.789Z,40.38
2022-08-09T19:02:54.097Z,40.79
2022-08-09T19:05:04.075Z,40.45
2022-08-09T19:07:16.777Z,40.74
2022-08-09T19:09:34.084Z,40.48
2022-08-09T19:11:40.451Z,40.66
2022-08-09T19:13:51.545Z,41.29
2022-08-09T19:15:55.841Z,41.05
2022-08-09T19:17:59.043Z,41.39
2022-08-09T19:20:02.344Z,41.14
2022-08-09T19:22:06.854Z,41.50
2022-08-09T19:24:37.579Z,41.61
2022-08-09T19:26:34.798Z,41.56
2022-08-09T19:28:37.930Z,41.27
2022-08-09T19:30:40.271Z,41.47
2022-08-09T19:32:46.310Z,41.81
2022-08-09T19:34:54.648Z,42.07
2022-08-09T19:37:00.657Z,42.28
2022-08-09T19:39:03.565Z,42.21
2022-08-09T19:41:07.337Z,42.27
2022-08-09T19:43:10.257Z,42.22
2022-08-09T19:45:18.641Z,42.53
2022-08-09T19:47:23.465Z,42.14
2022-08-09T19:50:07.564Z,42.44
2022-08-09T19:51:55.231Z,42.46
2022-08-09T19:53:59.277Z,42.32
2022-08-09T19:56:02.895Z,43.08
2022-08-09T19:58:16.401Z,42.89
2022-08-09T20:00:18.867Z,43.48
2022-08-09T20:04:09.844Z,43.25
2022-08-09T20:04:53.274Z,43.17
2022-08-09T20:06:57.291Z,44.03
2022-08-09T20:09:00.267Z,43.58
2022-08-09T20:11:04.384Z,43.73
2022-08-09T20:13:06.948Z,44.09
2022-08-09T20:15:14.036Z,43.48
2022-08-09T20:17:48.543Z,44.35
2022-08-09T20:19:53.856Z,44.41
2022-08-09T20:22:00.365Z,44.72
2022-08-09T20:24:03.926Z,45.15
2022-08-09T20:26:06.974Z,45.25
2022-08-09T20:28:08.612Z,45.16
2022-08-09T20:30:14.653Z,45.67
2022-08-09T20:32:30.671Z,45.17
2022-08-09T20:34:35.533Z,45.77
2022-08-09T20:36:39.496Z,46.07
2022-08-09T20:39:29.192Z,46.31
2022-08-09T20:41:06.747Z,46.15
2022-08-09T20:43:19.098Z,46.53
2022-08-09T20:45:58.482Z,47.56
2022-08-09T20:47:48.636Z,47.14
2022-08-09T20:49:50.423Z,47.37
2022-08-09T20:51:52.114Z,46.91
2022-08-09T20:53:55.903Z,47.63
2022-08-09T20:56:00.725Z,47.57
2022-08-09T20:58:07.857Z,47.93
2022-08-09T21:00:31.128Z,48.03
2022-08-09T21:02:34.063Z,47.84
2022-08-09T21:05:51.069Z,47.85
2022-08-09T21:06:57.371Z,48.56
2022-08-09T21:08:58.904Z,48.64
2022-08-09T21:11:00.426Z,48.67
2022-08-09T21:13:12.385Z,48.81
2022-08-09T21:15:17.577Z,49.02
2022-08-09T21:18:20.878Z,49.17
2022-08-09T21:20:18.925Z,49.46
2022-08-09T21:22:37.748Z,49.29
2022-08-09T21:24:33.559Z,49.45
2022-08-09T21:26:35.450Z,49.82
2022-08-09T21:28:38.434Z,49.76
2022-08-09T21:30:40.675Z,50.66
2022-08-09T21:32:42.530Z,50.77
2022-08-09T21:34:49.160Z,50.72
2022-08-09T21:36:55.658Z,50.81
2022-08-09T21:38:59.321Z,51.00
2022-08-09T21:41:01.335Z,50.98
2022-08-09T21:43:04.025Z,50.94
2022-08-09T21:45:10.173Z,51.26
2022-08-09T21:47:19.132Z,51.12
2022-08-09T21:49:20.730Z,50.70
2022-08-09T21:51:25.444Z,50.62
2022-08-09T21:53:40.113Z,51.58
2022-08-09T21:55:46.523Z,52.18
2022-08-09T21:57:59.451Z,52.12
2022-08-09T22:00:01.850Z,52.26
2022-08-09T22:02:04.941Z,52.01
2022-08-09T22:04:06.540Z,52.36
2022-08-09T22:06:08.217Z,52.69
2022-08-09T22:08:13.466Z,52.75
2022-08-09T22:10:22.148Z,53.04
2022-08-09T22:12:30.845Z,53.60
2022-08-09T22:14:33.012Z,53.41
2022-08-09T22:16:37.404Z,53.21
2022-08-09T22:18:44.104Z,53.20
2022-08-09T22:20:55.300Z,53.49
2022-08-09T22:22:57.816Z,53.23
2022-08-09T22:26:08.691Z,53.36
2022-08-09T22:27:21.050Z,53.66
2022-08-09T22:29:28.785Z,53.78
2022-08-09T22:31:36.437Z,54.21
2022-08-09T22:33:49.201Z,54.18
2022-08-09T22:36:00.853Z,54.21
2022-08-09T22:38:07.658Z,54.42
2022-08-09T22:40:20.270Z,54.40
2022-08-09T22:42:23.597Z,54.67
2022-08-09T22:44:25.321Z,54.83
2022-08-09T22:48:11.354Z,54.94
2022-08-09T22:48:55.856Z,55.40
2022-08-09T22:51:10.290Z,55.67
2022-08-09T22:53:12.533Z,55.62
2022-08-09T22:55:21.846Z,55.60
2022-08-09T22:57:24.445Z,55.87
2022-08-09T22:59:55.303Z,56.14
2022-08-09T23:01:58.953Z,56.64
2022-08-09T23:04:04.419Z,56.81
2022-08-09T23:06:10.010Z,57.15
2022-08-09T23:08:22.700Z,56.99
2022-08-09T23:10:31.253Z,57.08
2022-08-09T23:12:32.860Z,57.22
2022-08-09T23:14:37.633Z,57.36
2022-08-09T23:16:44.657Z,57.42
2022-08-09T23:18:46.191Z,57.36
2022-08-09T23:20:47.752Z,57.80
2022-08-09T23:22:50.646Z,58.23
2022-08-09T23:24:52.222Z,58.44
2022-08-09T23:26:53.777Z,59.42
2022-08-09T23:28:55.326Z,60.15
2022-08-09T23:30:56.874Z,60.87
2022-08-09T23:32:58.411Z,60.95
2022-08-09T23:34:59.999Z,60.76
2022-08-09T23:37:01.552Z,60.48
2022-08-09T23:39:05.746Z,60.76
2022-08-09T23:41:07.366Z,60.91
2022-08-09T23:43:09.025Z,60.71
2022-08-09T23:45:11.147Z,60.76
2022-08-09T23:47:32.683Z,60.81
2022-08-09T23:49:34.188Z,61.16
2022-08-09T23:51:35.720Z,61.52
2022-08-09T23:53:38.389Z,61.73
2022-08-09T23:55:46.215Z,61.54
2022-08-09T23:58:07.199Z,62.15
